createdAt,value
2022-08-16T00:03:57.561Z,3.5
2022-08-16T00:10:20.210Z,3.5
2022-08-16T00:17:00.488Z,3.7
2022-08-16T00:23:00.502Z,3.7
2022-08-16T00:29:23.504Z,1.8
2022-08-16T00:35:43.519Z,1.8
2022-08-16T00:42:10.064Z,2.2
2022-08-16T00:48:28.853Z,2.2
2022-08-16T00:54:49.488Z,1.8
2022-08-16T01:01:09.527Z,1.8
2022-08-16T01:07:43.782Z,2.5
2022-08-16T01:13:53.054Z,2.5
2022-08-16T01:20:24.242Z,3.7
2022-08-16T01:26:35.743Z,3.7
2022-08-16T01:32:59.718Z,2.5
2022-08-16T01:39:18.492Z,2.5
2022-08-16T01:45:41.749Z,1.9
2022-08-16T01:52:01.486Z,1.9
2022-08-16T01:58:24.616Z,2.6
2022-08-16T02:04:48.465Z,2.6
2022-08-16T02:11:07.532Z,2.9
2022-08-16T02:17:28.371Z,2.9
2022-08-16T02:23:50.495Z,2.4
2022-08-16T02:30:10.562Z,2.4
2022-08-16T02:36:42.365Z,3.3
2022-08-16T02:42:53.750Z,3.3
2022-08-16T02:49:16.751Z,2
2022-08-16T02:55:40.526Z,2
2022-08-16T03:01:59.593Z,3.3
2022-08-16T03:08:50.006Z,3.3
2022-08-16T03:14:42.584Z,2
2022-08-16T03:21:02.517Z,2
2022-08-16T03:27:25.601Z,3.5
2022-08-16T03:50:25.541Z,3.1
2022-08-16T03:56:34.516Z,3.1
2022-08-16T04:02:57.504Z,1.4
2022-08-16T04:09:17.579Z,1.4
2022-08-16T04:15:40.872Z,2.6
2022-08-16T04:22:00.626Z,2.6
2022-08-16T04:28:28.958Z,3.1
2022-08-16T04:34:43.563Z,3.1
2022-08-16T04:41:06.714Z,1.8
2022-08-16T04:47:31.220Z,1.8
2022-08-16T04:53:49.642Z,2.3
2022-08-16T05:00:31.440Z,2.3
2022-08-16T05:06:40.079Z,3
2022-08-16T05:12:52.549Z,3
2022-08-16T05:19:16.419Z,5.1
2022-08-16T05:25:36.437Z,5.1
2022-08-16T05:31:58.606Z,3.1
2022-08-16T05:38:30.732Z,3.1
2022-08-16T05:44:41.707Z,1.5
2022-08-16T05:51:01.515Z,1.5
2022-08-16T05:57:24.555Z,3.4
2022-08-16T06:03:44.565Z,3.4
2022-08-16T06:10:07.537Z,3.1
2022-08-16T06:16:27.526Z,3.1
2022-08-16T06:22:58.018Z,1.5
2022-08-16T06:29:10.535Z,1.5
2022-08-16T06:35:35.476Z,3.9
2022-08-16T06:41:53.479Z,3.9
2022-08-16T06:48:18.797Z,2.4
2022-08-16T06:54:36.507Z,2.4
2022-08-16T07:01:00.105Z,1.5
2022-08-16T07:07:19.484Z,1.5
2022-08-16T07:14:04.035Z,3.1
2022-08-16T07:20:29.422Z,3.1
2022-08-16T07:26:25.723Z,4.4
2022-08-16T07:32:51.302Z,4.4
2022-08-16T07:39:08.505Z,3
2022-08-16T07:45:28.471Z,3
2022-08-16T07:51:54.267Z,4.7
2022-08-16T07:58:18.229Z,4.7
2022-08-16T08:04:34.525Z,3.2
2022-08-16T08:10:54.484Z,3.2
2022-08-16T08:17:17.492Z,1.8
2022-08-16T08:23:37.493Z,1.8
2022-08-16T08:30:09.458Z,2.5
2022-08-16T08:36:21.854Z,2.5
2022-08-16T08:42:43.572Z,2.4
2022-08-16T08:49:03.511Z,2.4
2022-08-16T08:55:26.491Z,2.1
2022-08-16T09:01:56.384Z,2.1
2022-08-16T09:18:53.486Z,1.7
2022-08-16T09:25:11.298Z,1.7
2022-08-16T09:31:33.461Z,4
2022-08-16T09:38:00.750Z,4
2022-08-16T09:45:09.894Z,4
2022-08-16T09:50:37.352Z,4
2022-08-16T09:56:59.522Z,2.5
2022-08-16T10:03:19.519Z,2.5
2022-08-16T10:09:45.372Z,2.1
2022-08-16T10:16:02.515Z,2.1
2022-08-16T10:22:25.469Z,2.1
2022-08-16T10:28:45.533Z,2.1
2022-08-16T10:35:08.489Z,1.9
2022-08-16T10:41:28.500Z,1.9
2022-08-16T10:48:00.883Z,1.5
2022-08-16T10:54:28.278Z,1.5
2022-08-16T11:00:34.519Z,2.5
2022-08-16T11:07:43.235Z,2.5
2022-08-16T11:20:00.435Z,2.3
2022-08-16T11:26:08.130Z,1.1
2022-08-16T11:32:22.791Z,1.1
2022-08-16T11:38:47.979Z,2.1
2022-08-16T11:45:03.521Z,2.1
2022-08-16T11:51:26.472Z,1.8
2022-08-16T11:57:46.578Z,1.8
2022-08-16T12:04:09.585Z,2.5
2022-08-16T12:10:29.497Z,2.5
2022-08-16T12:16:55.403Z,1.6
2022-08-16T12:23:12.482Z,1.6
2022-08-16T12:29:35.499Z,1.1
2022-08-16T12:35:55.507Z,1.1
2022-08-16T12:42:18.472Z,3
2022-08-16T12:48:38.548Z,3
2022-08-16T12:55:01.485Z,1.1
2022-08-16T13:01:22.350Z,1.1
2022-08-16T13:07:45.239Z,0.9
2022-08-16T13:14:05.249Z,0.9
2022-08-16T13:20:27.524Z,1.2
2022-08-16T13:26:47.481Z,1.2
2022-08-16T13:33:13.223Z,2.5
2022-08-16T13:39:30.562Z,2.5
2022-08-16T13:45:54.036Z,1.5
2022-08-16T13:52:13.517Z,1.5
2022-08-16T13:58:50.658Z,1.7
2022-08-16T14:05:02.978Z,1.7
2022-08-16T14:11:19.490Z,2.8
2022-08-16T14:18:16.180Z,2.8
2022-08-16T14:24:02.521Z,1.9
2022-08-16T14:30:22.481Z,1.9
2022-08-16T14:36:45.527Z,1.6
2022-08-16T14:43:05.781Z,1.6
2022-08-16T14:49:28.492Z,1.7
2022-08-16T14:55:48.671Z,1.7
2022-08-16T15:02:11.559Z,2.1
2022-08-16T15:25:18.483Z,2.3
2022-08-16T15:31:38.511Z,2.3
2022-08-16T15:38:01.781Z,1.3
2022-08-16T15:44:22.489Z,1.3
2022-08-16T15:50:44.482Z,1.3
2022-08-16T15:57:06.011Z,1.3
2022-08-16T16:03:27.490Z,2.4
2022-08-16T16:09:47.570Z,2.4
2022-08-16T16:16:13.318Z,0.9
2022-08-16T16:22:30.481Z,0.9
2022-08-16T16:29:06.914Z,0.9
2022-08-16T16:35:13.483Z,0.9
2022-08-16T16:41:36.527Z,2
2022-08-16T16:47:56.553Z,2
2022-08-16T16:54:22.407Z,1.2
2022-08-16T17:00:39.555Z,1.2
2022-08-16T17:07:02.487Z,2.7
2022-08-16T17:13:22.521Z,2.7
2022-08-16T17:19:45.482Z,1.8
2022-08-16T17:26:10.440Z,1.8
2022-08-16T17:32:34.589Z,1.8
2022-08-16T17:38:48.517Z,1.8
2022-08-16T17:45:11.495Z,2.6
2022-08-16T17:51:31.533Z,2.6
2022-08-16T17:57:54.531Z,0.9
2022-08-16T18:04:14.469Z,0.9
2022-08-16T18:10:37.958Z,1
2022-08-16T18:16:57.706Z,1
2022-08-16T18:23:20.600Z,2.1
2022-08-16T18:29:40.484Z,2.1
2022-08-16T18:36:03.508Z,0.9
2022-08-16T18:42:23.503Z,0.9
2022-08-16T18:48:46.465Z,1.2
2022-08-16T18:55:13.873Z,1.2
2022-08-16T19:01:29.529Z,1.5
2022-08-16T19:07:49.642Z,1.5
2022-08-16T19:14:12.494Z,2.2
2022-08-16T19:20:32.467Z,2.2
2022-08-16T19:26:55.495Z,1.6
2022-08-16T19:33:15.504Z,1.6
2022-08-16T19:39:38.523Z,1.3
2022-08-16T19:45:58.517Z,1.3
2022-08-16T19:52:21.457Z,1.4
2022-08-16T19:58:51.136Z,1.4
2022-08-16T20:05:04.462Z,1
2022-08-16T20:11:24.518Z,1
2022-08-16T20:17:47.600Z,1.9
2022-08-16T20:24:32.349Z,1.9
2022-08-16T20:30:30.509Z,1.7
2022-08-16T20:36:50.510Z,1.7
2022-08-16T21:00:14.509Z,5.7
2022-08-16T21:06:37.461Z,5.7
2022-08-16T21:12:57.819Z,5.7
2022-08-16T21:19:20.457Z,1.6
2022-08-16T21:25:42.937Z,1.6
2022-08-16T21:32:03.484Z,2.1
2022-08-16T21:38:29.723Z,2.1
2022-08-16T21:44:46.518Z,2
2022-08-16T21:51:06.488Z,2
2022-08-16T21:57:35.364Z,2.7
2022-08-16T22:21:44.507Z,4.9
2022-08-16T22:28:04.470Z,4.9
2022-08-16T22:34:27.493Z,4.9
2022-08-16T22:40:47.535Z,4.9
2022-08-16T22:47:10.483Z,3
2022-08-16T22:53:30.508Z,3
2022-08-16T22:59:53.461Z,1.5
2022-08-16T23:06:13.580Z,1.5
2022-08-16T23:12:36.470Z,2.2
2022-08-16T23:18:56.649Z,2.2
2022-08-16T23:25:19.502Z,1.6
2022-08-16T23:31:39.481Z,1.6
2022-08-16T23:38:02.572Z,3.2
2022-08-16T23:44:44.274Z,3.2
2022-08-16T23:50:45.519Z,2.3
2022-08-16T23:57:05.460Z,2.3
